Time;durP1;ratioP1;P1;durP2;ratioP2;P2;SDS_P1;SDS_P2;PMS_P1;PMS_P2;Temp;Humidity;BMP_temperature;BMP_pressure;BME280_temperature;BME280_humidity;BME280_pressure;Samples;Min_cycle;Max_cycle;Signal;HPM_P1;HPM_P2
2022/07/03 00:01:30;;;;;;;;;;;;;;;24.82;52.57;101420.47;1710487;83;25830;-54
2022/07/03 00:03:56;;;;;;;;;;;;;;;24.82;51.54;101419.09;1696080;83;25847;-55
2022/07/03 00:06:23;;;;;;;;;;;;;;;24.81;51.40;101418.27;1693566;82;25786;-55
2022/07/03 00:08:50;;;;;;;;;;;;;;;24.81;51.65;101421.02;1692970;82;27604;-55
2022/07/03 00:11:17;;;;;;;;;;;;;;;24.78;52.41;101420.06;1693238;83;25793;-55
2022/07/03 00:13:43;;;;;;;;;;;;;;;24.75;51.82;101418.27;1691676;82;26526;-55
2022/07/03 00:16:10;;;;;;;;;;;;;;;24.71;52.39;101423.36;1692011;82;25790;-54
2022/07/03 00:18:36;;;;;;;;;;;;;;;24.69;52.09;101417.22;1701802;83;25863;-54
2022/07/03 00:21:05;;;;;;;;;;;;;;;24.67;52.35;101416.07;1689088;83;27641;-54
2022/07/03 00:23:41;;;;;;;;;;;;;;;24.64;52.18;101412.33;1684703;83;25785;-56
2022/07/03 00:26:09;;;;;;;;;;;;;;;24.60;52.40;101404.72;1671403;83;25917;-54
2022/07/03 00:28:36;;;;;;;;;;;;;;;24.57;52.76;101410.13;1692488;83;25784;-56
2022/07/03 00:31:02;;;;;;;;;;;;;;;24.54;52.42;101408.66;1692970;83;26110;-55
2022/07/03 00:33:32;;;;;;;;;;;;;;;24.50;52.90;101411.51;1693338;82;27490;-55
2022/07/03 00:35:59;;;;;;;;;;;;;;;24.42;53.20;101408.98;1697892;83;25567;-55
2022/07/03 00:38:26;;;;;;;;;;;;;;;24.36;53.31;101415.34;1687766;83;25730;-55
2022/07/03 00:40:53;;;;;;;;;;;;;;;24.31;53.68;101410.48;1694491;83;25877;-54
2022/07/03 00:43:20;;;;;;;;;;;;;;;24.20;53.79;101405.61;1692067;82;25691;-55
2022/07/03 00:45:49;;;;;;;;;;;;;;;24.16;53.79;101402.98;1707273;81;27552;-55
2022/07/03 00:48:17;;;;;;;;;;;;;;;24.14;54.13;101402.34;1728415;81;25909;-55
2022/07/03 00:50:50;;;;;;;;;;;;;;;24.13;54.36;101404.77;1734430;81;25761;-55
2022/07/03 00:53:20;;;;;;;;;;;;;;;24.12;53.86;101406.66;1701151;83;26053;-55
2022/07/03 00:55:49;;;;;;;;;;;;;;;24.11;54.47;101406.37;1692211;82;25868;-55
2022/07/03 00:58:17;;;;;;;;;;;;;;;24.06;55.57;101399.27;1689894;83;28234;-55
2022/07/03 01:00:45;;;;;;;;;;;;;;;24.04;55.75;101405.49;1694657;83;25948;-56
2022/07/03 01:03:14;;;;;;;;;;;;;;;23.98;55.44;101406.34;1707924;83;25723;-56
2022/07/03 01:05:46;;;;;;;;;;;;;;;23.87;58.49;101416.03;1728769;80;25816;-54
2022/07/03 01:08:25;;;;;;;;;;;;;;;23.75;57.59;101411.15;1746383;81;25843;-56
2022/07/03 01:11:12;;;;;;;;;;;;;;;23.64;58.99;101410.37;1755500;80;27488;-55
2022/07/03 01:14:03;;;;;;;;;;;;;;;23.55;59.75;101407.50;1757431;80;25922;-54
2022/07/03 01:16:48;;;;;;;;;;;;;;;23.46;60.03;101405.48;1718102;82;25582;-55
2022/07/03 01:19:44;;;;;;;;;;;;;;;23.42;59.37;101406.43;1745317;80;26618;-55
2022/07/03 01:22:32;;;;;;;;;;;;;;;23.41;59.85;101405.24;1747153;80;25668;-54
2022/07/03 01:25:14;;;;;;;;;;;;;;;23.36;59.59;101398.16;1756405;80;27329;-53
2022/07/03 01:28:03;;;;;;;;;;;;;;;23.31;60.05;101398.78;1732721;80;26100;-54
2022/07/03 01:30:33;;;;;;;;;;;;;;;23.31;59.59;101400.16;1755048;81;25915;-54
2022/07/03 01:33:03;;;;;;;;;;;;;;;23.40;60.00;101396.17;1747556;80;25781;-54
2022/07/03 01:35:35;;;;;;;;;;;;;;;23.44;59.11;101397.44;1751001;80;25776;-53
2022/07/03 01:38:07;;;;;;;;;;;;;;;23.53;58.85;101390.41;1748565;80;27613;-54
2022/07/03 01:40:36;;;;;;;;;;;;;;;23.59;58.83;101392.31;1761308;80;25842;-54
2022/07/03 01:43:05;;;;;;;;;;;;;;;23.61;58.25;101380.60;1746057;81;25858;-54
2022/07/03 01:45:35;;;;;;;;;;;;;;;23.67;58.08;101388.51;1764834;80;26012;-55
2022/07/03 01:48:04;;;;;;;;;;;;;;;23.73;57.79;101384.41;1750195;80;26472;-55
2022/07/03 01:50:32;;;;;;;;;;;;;;;23.80;57.52;101387.71;1749615;80;27838;-55
2022/07/03 01:53:04;;;;;;;;;;;;;;;23.85;57.42;101381.88;1713275;82;25701;-56
2022/07/03 01:55:32;;;;;;;;;;;;;;;23.91;57.41;101379.69;1708947;83;25971;-53
2022/07/03 01:58:00;;;;;;;;;;;;;;;23.97;57.29;101383.53;1703438;83;26437;-54
2022/07/03 02:00:27;;;;;;;;;;;;;;;23.98;57.19;101385.19;1709992;82;25923;-54
2022/07/03 02:03:00;;;;;;;;;;;;;;;24.01;57.06;101388.07;1712107;83;27385;-55
2022/07/03 02:05:44;;;;;;;;;;;;;;;23.98;56.81;101389.31;1711742;82;25761;-55
2022/07/03 02:08:45;;;;;;;;;;;;;;;23.99;56.83;101396.50;1729765;80;25763;-55
2022/07/03 02:11:18;;;;;;;;;;;;;;;24.01;56.79;101397.69;1728271;80;26823;-54
2022/07/03 02:13:53;;;;;;;;;;;;;;;24.00;56.71;101391.88;1738871;81;25776;-54
2022/07/03 02:16:23;;;;;;;;;;;;;;;23.98;56.58;101396.19;1732070;80;27469;-55
2022/07/03 02:19:06;;;;;;;;;;;;;;;23.92;56.95;101394.25;1732787;82;25907;-55
2022/07/03 02:21:34;;;;;;;;;;;;;;;23.81;57.58;101396.24;1727222;81;25750;-54
2022/07/03 02:24:21;;;;;;;;;;;;;;;23.73;58.26;101397.31;1736493;81;26124;-54
2022/07/03 02:27:00;;;;;;;;;;;;;;;23.66;57.48;101401.95;1738978;80;25831;-54
2022/07/03 02:29:30;;;;;;;;;;;;;;;23.59;57.32;101404.67;1725923;80;27722;-55
2022/07/03 02:32:03;;;;;;;;;;;;;;;23.57;57.70;101397.16;1723534;82;26136;-55
2022/07/03 02:34:32;;;;;;;;;;;;;;;23.55;57.79;101401.50;1724160;81;26411;-53
2022/07/03 02:37:08;;;;;;;;;;;;;;;23.51;57.80;101408.44;1729576;82;25879;-55
2022/07/03 02:39:47;;;;;;;;;;;;;;;23.54;57.57;101420.91;1728621;81;26356;-54
2022/07/03 02:42:23;;;;;;;;;;;;;;;23.57;57.65;101413.13;1715543;81;29062;-55
2022/07/03 02:44:52;;;;;;;;;;;;;;;23.55;58.57;101414.36;1725691;80;25869;-53
2022/07/03 02:47:34;;;;;;;;;;;;;;;23.51;58.54;101412.56;1692026;81;25771;-55
2022/07/03 02:50:10;;;;;;;;;;;;;;;23.48;58.30;101410.25;1683055;82;27899;-54
2022/07/03 02:52:44;;;;;;;;;;;;;;;23.45;58.50;101407.37;1716609;81;25864;-55
2022/07/03 02:55:26;;;;;;;;;;;;;;;23.44;58.56;101412.53;1727995;80;27528;-55
2022/07/03 02:57:59;;;;;;;;;;;;;;;23.42;58.62;101408.31;1713513;82;26211;-55
2022/07/03 03:00:26;;;;;;;;;;;;;;;23.39;59.06;101401.88;1713397;80;25732;-54
2022/07/03 03:02:55;;;;;;;;;;;;;;;23.37;58.63;101404.81;1724560;81;26653;-55
2022/07/03 03:05:43;;;;;;;;;;;;;;;23.34;58.64;101404.38;1715303;81;25457;-54
2022/07/03 03:08:14;;;;;;;;;;;;;;;23.29;58.90;101400.38;1685338;82;29553;-54
2022/07/03 03:10:41;;;;;;;;;;;;;;;23.28;60.01;101412.40;1687663;82;25460;-55
2022/07/03 03:13:13;;;;;;;;;;;;;;;23.22;59.57;101408.25;1675604;83;25728;-54
2022/07/03 03:15:43;;;;;;;;;;;;;;;23.20;59.52;101411.20;1692975;83;25846;-54
2022/07/03 03:18:11;;;;;;;;;;;;;;;23.22;59.68;101414.57;1690631;82;25720;-55
2022/07/03 03:20:40;;;;;;;;;;;;;;;23.26;59.67;101413.66;1696042;82;27575;-53
2022/07/03 03:23:16;;;;;;;;;;;;;;;23.28;59.80;101410.16;1672998;83;25830;-55
2022/07/03 03:25:44;;;;;;;;;;;;;;;23.30;59.52;101416.30;1695315;83;26435;-54
2022/07/03 03:28:10;;;;;;;;;;;;;;;23.36;59.49;101413.27;1694250;81;25846;-55
2022/07/03 03:30:37;;;;;;;;;;;;;;;23.39;59.26;101420.56;1672154;83;26550;-54
2022/07/03 03:33:09;;;;;;;;;;;;;;;23.44;59.20;101423.52;1701079;82;28255;-54
2022/07/03 03:35:37;;;;;;;;;;;;;;;23.48;59.36;101417.12;1696617;83;25944;-54
2022/07/03 03:38:04;;;;;;;;;;;;;;;23.52;59.29;101424.41;1696720;82;25713;-55
2022/07/03 03:40:32;;;;;;;;;;;;;;;23.53;59.17;101428.31;1698590;81;25785;-55
2022/07/03 03:43:00;;;;;;;;;;;;;;;23.53;59.84;101425.56;1691151;82;25853;-55
2022/07/03 03:45:26;;;;;;;;;;;;;;;23.53;59.19;101429.69;1695116;81;27436;-55
2022/07/03 03:47:53;;;;;;;;;;;;;;;23.58;59.19;101427.16;1721396;81;25733;-55
2022/07/03 03:50:20;;;;;;;;;;;;;;;23.66;59.14;101428.88;1726019;81;25951;-54
2022/07/03 03:52:47;;;;;;;;;;;;;;;23.72;58.93;101432.70;1706031;82;25871;-54
2022/07/03 03:55:14;;;;;;;;;;;;;;;23.75;59.03;101441.36;1697914;82;25978;-53
2022/07/03 03:57:40;;;;;;;;;;;;;;;23.71;59.73;101435.95;1696967;82;27485;-54
2022/07/03 04:00:08;;;;;;;;;;;;;;;23.71;59.08;101434.58;1703357;82;25770;-54
2022/07/03 04:02:41;;;;;;;;;;;;;;;23.71;59.17;101438.70;1706532;81;25793;-52
2022/07/03 04:05:08;;;;;;;;;;;;;;;23.69;59.42;101438.08;1703228;81;25809;-55
2022/07/03 04:07:37;;;;;;;;;;;;;;;23.70;59.74;101441.16;1700943;81;25789;-54
2022/07/03 04:10:04;;;;;;;;;;;;;;;23.68;59.76;101433.64;1745614;81;28320;-55
2022/07/03 04:12:30;;;;;;;;;;;;;;;23.73;59.77;101433.84;1719137;81;25878;-55
2022/07/03 04:14:58;;;;;;;;;;;;;;;23.78;59.46;101435.14;1740592;81;26157;-55
2022/07/03 04:17:26;;;;;;;;;;;;;;;23.83;59.72;101433.97;1741272;81;26395;-54
2022/07/03 04:19:52;;;;;;;;;;;;;;;23.83;59.70;101432.60;1737237;81;25694;-54
2022/07/03 04:22:19;;;;;;;;;;;;;;;23.82;60.01;101428.16;1739201;81;27545;-55
2022/07/03 04:24:46;;;;;;;;;;;;;;;23.74;60.37;101431.42;1739162;81;25768;-53
2022/07/03 04:27:13;;;;;;;;;;;;;;;23.82;59.92;101427.65;1738359;81;25805;-55
2022/07/03 04:29:39;;;;;;;;;;;;;;;23.93;60.20;101428.92;1740329;81;25763;-54
2022/07/03 04:32:07;;;;;;;;;;;;;;;23.91;60.29;101429.66;1734578;81;27344;-55
2022/07/03 04:34:33;;;;;;;;;;;;;;;23.96;60.36;101429.06;1727129;81;27452;-53
2022/07/03 04:37:00;;;;;;;;;;;;;;;23.96;60.76;101435.42;1728442;81;25813;-55
2022/07/03 04:39:26;;;;;;;;;;;;;;;23.95;60.28;101424.61;1721807;81;25748;-55
2022/07/03 04:41:53;;;;;;;;;;;;;;;24.03;60.22;101422.52;1729036;82;25896;-52
2022/07/03 04:44:20;;;;;;;;;;;;;;;24.18;59.97;101422.33;1740072;81;25796;-55
2022/07/03 04:46:47;;;;;;;;;;;;;;;24.26;59.92;101420.42;1714426;81;27503;-53
2022/07/03 04:49:13;;;;;;;;;;;;;;;24.22;59.62;101413.95;1696319;82;25843;-54
2022/07/03 04:51:40;;;;;;;;;;;;;;;24.30;59.70;101422.53;1705193;81;26629;-54
2022/07/03 04:54:06;;;;;;;;;;;;;;;24.43;59.55;101423.59;1728460;81;25772;-55
2022/07/03 04:56:33;;;;;;;;;;;;;;;24.55;59.46;101423.24;1725941;81;25728;-54
2022/07/03 04:59:00;;;;;;;;;;;;;;;24.58;59.00;101421.45;1735869;81;27545;-55
2022/07/03 05:01:26;;;;;;;;;;;;;;;24.64;59.13;101424.71;1723539;81;25812;-54
2022/07/03 05:03:53;;;;;;;;;;;;;;;24.72;58.89;101426.94;1720585;79;25771;-54
2022/07/03 05:06:20;;;;;;;;;;;;;;;24.78;58.83;101425.56;1729151;80;26131;-54
2022/07/03 05:08:47;;;;;;;;;;;;;;;24.84;58.98;101419.73;1732114;82;25736;-54
2022/07/03 05:11:14;;;;;;;;;;;;;;;24.90;58.69;101419.40;1693373;83;28317;-55
2022/07/03 05:13:40;;;;;;;;;;;;;;;24.98;58.43;101422.74;1689746;82;25767;-53
2022/07/03 05:16:07;;;;;;;;;;;;;;;25.08;58.21;101423.69;1687702;83;25801;-53
2022/07/03 05:18:35;;;;;;;;;;;;;;;25.08;57.83;101414.56;1693926;83;26221;-54
2022/07/03 05:21:02;;;;;;;;;;;;;;;25.13;57.86;101423.03;1697336;83;26010;-53
2022/07/03 05:23:29;;;;;;;;;;;;;;;25.22;57.79;101415.36;1693039;82;27481;-54
2022/07/03 05:25:59;;;;;;;;;;;;;;;25.32;57.68;101419.87;1700397;83;25281;-54
2022/07/03 05:28:26;;;;;;;;;;;;;;;25.40;57.44;101424.33;1702415;82;25746;-53
2022/07/03 05:30:52;;;;;;;;;;;;;;;25.48;57.16;101426.81;1700010;82;25780;-54
2022/07/03 05:33:19;;;;;;;;;;;;;;;25.52;57.03;101421.16;1690368;82;25746;-53
2022/07/03 05:35:45;;;;;;;;;;;;;;;25.54;56.77;101423.72;1697758;82;27708;-54
2022/07/03 05:38:13;;;;;;;;;;;;;;;25.57;56.93;101425.50;1700763;83;26131;-54
2022/07/03 05:40:39;;;;;;;;;;;;;;;25.51;56.67;101426.36;1706494;82;25807;-55
2022/07/03 05:43:06;;;;;;;;;;;;;;;25.53;56.92;101425.61;1706899;83;25801;-53
2022/07/03 05:45:33;;;;;;;;;;;;;;;25.60;56.83;101420.08;1712035;80;25884;-54
2022/07/03 05:48:00;;;;;;;;;;;;;;;25.71;56.75;101420.75;1764016;80;27489;-53
2022/07/03 05:50:26;;;;;;;;;;;;;;;25.80;56.49;101426.83;1771444;80;25676;-55
2022/07/03 05:52:53;;;;;;;;;;;;;;;25.87;56.37;101426.79;1766059;80;25751;-54
2022/07/03 05:55:19;;;;;;;;;;;;;;;25.88;56.21;101427.11;1764326;80;25871;-52
2022/07/03 05:57:46;;;;;;;;;;;;;;;25.86;56.21;101426.48;1758170;80;26093;-53
2022/07/03 06:00:14;;;;;;;;;;;;;;;25.81;56.53;101424.39;1713246;82;27785;-53
2022/07/03 06:02:40;;;;;;;;;;;;;;;25.76;56.48;101427.81;1714435;83;26062;-53
2022/07/03 06:05:08;;;;;;;;;;;;;;;25.83;56.71;101431.91;1715199;82;25770;-54
2022/07/03 06:07:35;;;;;;;;;;;;;;;25.86;56.77;101436.13;1740770;80;25770;-52
2022/07/03 06:10:02;;;;;;;;;;;;;;;25.88;56.60;101426.55;1745144;80;26411;-54
2022/07/03 06:12:29;;;;;;;;;;;;;;;25.90;56.51;101434.08;1733037;81;27428;-55
2022/07/03 06:14:55;;;;;;;;;;;;;;;25.90;56.39;101433.25;1735374;80;25741;-55
2022/07/03 06:17:21;;;;;;;;;;;;;;;25.98;56.56;101427.98;1742508;81;25679;-55
2022/07/03 06:19:48;;;;;;;;;;;;;;;26.06;56.29;101434.59;1744057;80;26631;-55
2022/07/03 06:22:14;;;;;;;;;;;;;;;26.11;55.96;101434.81;1734278;81;25878;-55
2022/07/03 06:24:41;;;;;;;;;;;;;;;26.15;56.53;101434.66;1736167;82;27525;-55
2022/07/03 06:27:08;;;;;;;;;;;;;;;26.19;56.08;101433.16;1745345;81;25510;-54
2022/07/03 06:29:34;;;;;;;;;;;;;;;26.24;55.77;101430.55;1745464;80;25942;-54
2022/07/03 06:32:01;;;;;;;;;;;;;;;26.25;55.71;101439.14;1741813;81;25813;-55
2022/07/03 06:34:27;;;;;;;;;;;;;;;26.35;55.77;101434.52;1747484;81;25791;-54
2022/07/03 06:36:54;;;;;;;;;;;;;;;26.48;55.78;101434.06;1744007;82;27501;-54
2022/07/03 06:39:21;;;;;;;;;;;;;;;26.62;55.20;101434.78;1739904;80;25751;-54
2022/07/03 06:41:47;;;;;;;;;;;;;;;26.68;55.20;101438.86;1733886;80;25753;-55
2022/07/03 06:44:14;;;;;;;;;;;;;;;26.78;54.99;101435.59;1749570;81;25800;-55
2022/07/03 06:46:42;;;;;;;;;;;;;;;26.90;54.75;101438.44;1710480;81;25764;-55
2022/07/03 06:49:09;;;;;;;;;;;;;;;27.00;54.29;101440.67;1681706;82;28342;-56
2022/07/03 06:51:36;;;;;;;;;;;;;;;27.02;53.96;101438.54;1700272;83;25723;-54
2022/07/03 06:54:02;;;;;;;;;;;;;;;27.08;53.93;101437.61;1693205;83;25814;-54
2022/07/03 06:56:28;;;;;;;;;;;;;;;26.96;53.34;101435.30;1696689;82;25759;-54
2022/07/03 06:58:55;;;;;;;;;;;;;;;26.86;53.72;101438.05;1719213;81;26070;-55
2022/07/03 07:01:21;;;;;;;;;;;;;;;26.74;53.66;101432.11;1705317;81;27503;-55
2022/07/03 07:03:48;;;;;;;;;;;;;;;26.68;54.22;101433.34;1730291;82;25798;-56
2022/07/03 07:06:14;;;;;;;;;;;;;;;26.69;54.29;101437.80;1723329;81;25726;-55
2022/07/03 07:08:41;;;;;;;;;;;;;;;26.78;54.35;101436.97;1729675;81;25948;-55
2022/07/03 07:11:08;;;;;;;;;;;;;;;26.83;54.09;101433.53;1715763;81;25757;-55
2022/07/03 07:13:34;;;;;;;;;;;;;;;26.84;54.14;101436.08;1721375;81;27499;-54
2022/07/03 07:16:01;;;;;;;;;;;;;;;26.96;53.94;101433.91;1721702;82;25799;-55
2022/07/03 07:18:27;;;;;;;;;;;;;;;26.89;53.85;101434.53;1728442;80;25774;-55
2022/07/03 07:20:54;;;;;;;;;;;;;;;26.92;53.87;101426.63;1726250;81;26681;-54
2022/07/03 07:23:22;;;;;;;;;;;;;;;27.11;53.93;101433.02;1731804;81;25773;-54
2022/07/03 07:25:49;;;;;;;;;;;;;;;27.34;53.59;101434.20;1734285;81;27407;-55
2022/07/03 07:28:15;;;;;;;;;;;;;;;27.55;53.17;101434.81;1728961;80;25864;-55
2022/07/03 07:30:41;;;;;;;;;;;;;;;27.68;52.27;101434.61;1728976;81;25784;-56
2022/07/03 07:33:08;;;;;;;;;;;;;;;27.75;52.05;101434.52;1730066;81;25813;-55
2022/07/03 07:35:35;;;;;;;;;;;;;;;27.56;52.23;101433.74;1736496;80;26029;-55
2022/07/03 07:38:02;;;;;;;;;;;;;;;27.59;52.23;101429.97;1736548;80;27482;-55
2022/07/03 07:40:28;;;;;;;;;;;;;;;27.55;51.73;101427.36;1736425;81;25823;-56
2022/07/03 07:42:55;;;;;;;;;;;;;;;27.54;51.75;101417.93;1720762;80;25682;-55
2022/07/03 07:45:22;;;;;;;;;;;;;;;27.62;51.51;101425.33;1728502;81;25829;-53
2022/07/03 07:47:49;;;;;;;;;;;;;;;27.57;51.09;101427.11;1733071;81;27321;-55
2022/07/03 07:50:15;;;;;;;;;;;;;;;27.61;51.30;101420.05;1733243;82;27561;-54
2022/07/03 07:52:42;;;;;;;;;;;;;;;27.63;51.10;101424.26;1728343;81;25907;-55
2022/07/03 07:55:09;;;;;;;;;;;;;;;27.60;51.18;101423.37;1740667;80;25847;-55
2022/07/03 07:57:38;;;;;;;;;;;;;;;27.56;51.10;101421.31;1735700;80;25969;-55
2022/07/03 08:00:07;;;;;;;;;;;;;;;27.48;51.38;101419.70;1732641;81;25758;-53
2022/07/03 08:05:36;;;;;;;;;;;;;;;27.63;51.25;101425.64;1719253;81;25440;-55
2022/07/03 08:08:09;;;;;;;;;;;;;;;27.60;51.78;101419.22;1729539;81;26493;-55
2022/07/03 08:10:38;;;;;;;;;;;;;;;27.48;51.68;101423.30;1724351;81;25870;-55
2022/07/03 08:13:04;;;;;;;;;;;;;;;27.36;52.20;101427.91;1733324;80;26013;-54
2022/07/03 08:15:31;;;;;;;;;;;;;;;27.15;52.65;101427.31;1719353;81;27726;-55
2022/07/03 08:17:57;;;;;;;;;;;;;;;27.08;53.25;101423.80;1732957;82;25792;-54
2022/07/03 08:20:25;;;;;;;;;;;;;;;27.03;53.62;101425.88;1729998;82;26220;-54
2022/07/03 08:22:52;;;;;;;;;;;;;;;26.86;54.27;101427.56;1728582;82;25800;-55
2022/07/03 08:25:19;;;;;;;;;;;;;;;26.59;55.35;101426.95;1723014;81;25809;-55
2022/07/03 08:27:45;;;;;;;;;;;;;;;26.47;55.24;101426.34;1731508;82;27518;-54
2022/07/03 08:30:15;;;;;;;;;;;;;;;26.41;55.96;101431.36;1725537;81;25758;-55
2022/07/03 08:32:42;;;;;;;;;;;;;;;26.33;56.54;101438.55;1734548;81;25855;-54
2022/07/03 08:35:09;;;;;;;;;;;;;;;26.29;56.55;101437.33;1731717;81;25850;-55
2022/07/03 08:37:36;;;;;;;;;;;;;;;26.24;57.61;101442.13;1724731;81;26121;-54
2022/07/03 08:40:04;;;;;;;;;;;;;;;26.12;57.28;101446.67;1730048;81;27489;-55
2022/07/03 08:42:33;;;;;;;;;;;;;;;26.12;57.53;101444.78;1728276;82;25727;-55
2022/07/03 08:45:01;;;;;;;;;;;;;;;26.08;58.06;101439.36;1724624;82;25867;-55
2022/07/03 08:47:29;;;;;;;;;;;;;;;26.05;58.11;101443.41;1728402;80;25995;-53
2022/07/03 08:49:57;;;;;;;;;;;;;;;26.00;58.48;101443.22;1730242;80;25520;-55
2022/07/03 08:52:23;;;;;;;;;;;;;;;25.92;58.57;101449.87;1727194;81;27494;-53
2022/07/03 08:54:50;;;;;;;;;;;;;;;25.99;58.30;101450.34;1723485;81;25892;-55
2022/07/03 08:57:17;;;;;;;;;;;;;;;26.04;58.58;101453.30;1728376;81;25817;-54
2022/07/03 08:59:46;;;;;;;;;;;;;;;25.91;59.22;101457.82;1705974;82;25863;-54
2022/07/03 09:02:13;;;;;;;;;;;;;;;25.82;59.34;101457.77;1691679;82;25877;-53
2022/07/03 09:04:40;;;;;;;;;;;;;;;25.84;59.60;101458.41;1694263;83;28158;-55
2022/07/03 09:07:07;;;;;;;;;;;;;;;25.89;59.56;101455.81;1697848;82;26186;-54
2022/07/03 09:09:34;;;;;;;;;;;;;;;25.92;59.48;101455.89;1705586;83;25714;-54
2022/07/03 09:12:00;;;;;;;;;;;;;;;25.91;59.13;101451.45;1688693;83;26485;-54
2022/07/03 09:14:28;;;;;;;;;;;;;;;25.95;59.27;101456.84;1688375;82;25846;-55
2022/07/03 09:17:26;;;;;;;;;;;;;;;25.99;59.21;101453.96;1671354;83;27511;-54
2022/07/03 09:19:52;;;;;;;;;;;;;;;26.06;59.08;101455.27;1734651;80;27328;-55
2022/07/03 09:22:23;;;;;;;;;;;;;;;26.12;60.13;101458.56;1740726;80;25874;-54
2022/07/03 09:24:53;;;;;;;;;;;;;;;26.10;60.46;101455.18;1737338;81;25814;-54
2022/07/03 09:27:22;;;;;;;;;;;;;;;26.16;61.19;101455.66;1739281;81;25775;-54
2022/07/03 09:29:58;;;;;;;;;;;;;;;26.18;60.64;101456.80;1718735;81;27446;-53
2022/07/03 09:32:26;;;;;;;;;;;;;;;26.18;61.83;101454.91;1722993;82;25901;-53
2022/07/03 09:35:13;;;;;;;;;;;;;;;26.21;60.80;101456.36;1718699;81;25834;-55
2022/07/03 09:38:01;;;;;;;;;;;;;;;26.28;60.51;101451.63;1729903;81;25851;-55
2022/07/03 09:40:31;;;;;;;;;;;;;;;26.54;60.58;101447.80;1730148;81;25483;-55
2022/07/03 09:43:03;;;;;;;;;;;;;;;26.80;59.40;101445.05;1720575;81;27956;-55
2022/07/03 09:46:01;;;;;;;;;;;;;;;27.11;59.18;101444.06;1733542;81;25832;-54
2022/07/03 09:48:39;;;;;;;;;;;;;;;27.41;57.85;101446.55;1752221;80;25898;-53
2022/07/03 09:51:11;;;;;;;;;;;;;;;27.80;57.32;101443.80;1755985;80;25813;-54
2022/07/03 09:54:01;;;;;;;;;;;;;;;28.20;56.51;101442.35;1749445;80;25469;-52
2022/07/03 09:56:37;;;;;;;;;;;;;;;28.77;55.62;101440.96;1751204;80;27487;-54
2022/07/03 09:59:15;;;;;;;;;;;;;;;29.27;53.60;101431.19;1713175;81;26063;-55
2022/07/03 10:01:43;;;;;;;;;;;;;;;29.74;51.87;101434.36;1699606;83;26331;-54
2022/07/03 10:04:19;;;;;;;;;;;;;;;29.85;49.16;101437.33;1697391;83;26508;-54
2022/07/03 10:06:52;;;;;;;;;;;;;;;29.82;49.12;101433.09;1728450;81;25757;-54
2022/07/03 10:09:22;;;;;;;;;;;;;;;29.98;49.81;101426.78;1714168;80;27498;-55
2022/07/03 10:11:49;;;;;;;;;;;;;;;30.20;50.03;101424.63;1715486;81;25719;-55
2022/07/03 10:14:18;;;;;;;;;;;;;;;30.37;48.77;101416.30;1719584;82;25847;-55
2022/07/03 10:16:45;;;;;;;;;;;;;;;30.50;47.23;101419.27;1720529;81;25773;-55
2022/07/03 10:19:21;;;;;;;;;;;;;;;30.34;46.82;101416.80;1716561;81;25810;-55
2022/07/03 10:21:52;;;;;;;;;;;;;;;30.34;47.49;101409.03;1723456;81;27473;-54
2022/07/03 10:24:24;;;;;;;;;;;;;;;30.42;47.10;101405.27;1707988;81;25778;-55
2022/07/03 10:26:52;;;;;;;;;;;;;;;30.36;46.79;101399.87;1716617;81;25511;-55
2022/07/03 10:29:21;;;;;;;;;;;;;;;30.46;47.23;101398.65;1716233;80;26576;-55
2022/07/03 10:31:48;;;;;;;;;;;;;;;30.78;46.30;101398.56;1720306;80;25793;-55
2022/07/03 10:34:23;;;;;;;;;;;;;;;31.53;45.97;101396.16;1716739;82;27702;-55
2022/07/03 10:36:55;;;;;;;;;;;;;;;31.80;45.56;101391.15;1709993;80;25906;-55
2022/07/03 10:39:25;;;;;;;;;;;;;;;31.93;44.35;101388.47;1715029;80;25840;-55
2022/07/03 10:44:54;;;;;;;;;;;;;;;31.81;44.44;101389.48;1721900;82;25794;-55
2022/07/03 10:47:44;;;;;;;;;;;;;;;31.83;44.06;101387.28;1700282;81;27441;-55
2022/07/03 10:50:17;;;;;;;;;;;;;;;31.89;43.41;101385.92;1703349;82;25838;-55
2022/07/03 10:52:44;;;;;;;;;;;;;;;32.16;42.75;101379.74;1701704;82;25859;-55
2022/07/03 10:55:12;;;;;;;;;;;;;;;32.49;42.07;101378.31;1705171;81;25787;-55
2022/07/03 10:57:40;;;;;;;;;;;;;;;32.88;41.52;101372.95;1696832;81;25857;-54
2022/07/03 11:00:18;;;;;;;;;;;;;;;33.52;40.25;101366.20;1720133;80;27538;-54
2022/07/03 11:02:47;;;;;;;;;;;;;;;34.14;40.62;101355.59;1721514;81;25929;-55
2022/07/03 11:05:22;;;;;;;;;;;;;;;35.25;38.74;101353.25;1734961;81;25836;-55
2022/07/03 11:07:55;;;;;;;;;;;;;;;36.01;36.29;101352.13;1749108;80;25828;-56
2022/07/03 11:10:26;;;;;;;;;;;;;;;36.01;34.89;101350.72;1746894;80;25668;-55
2022/07/03 11:13:15;;;;;;;;;;;;;;;35.76;36.14;101342.81;1748974;80;27602;-56
2022/07/03 11:15:44;;;;;;;;;;;;;;;36.34;36.54;101336.95;1718010;82;26791;-56
2022/07/03 11:18:15;;;;;;;;;;;;;;;37.18;34.37;101335.63;1713506;82;26213;-56
2022/07/03 11:20:45;;;;;;;;;;;;;;;37.80;34.29;101330.98;1755928;80;25835;-55
2022/07/03 11:23:29;;;;;;;;;;;;;;;38.45;31.50;101329.23;1747612;81;25870;-55
2022/07/03 11:26:00;;;;;;;;;;;;;;;38.56;32.19;101320.86;1748355;80;45502;-56
2022/07/03 11:28:36;;;;;;;;;;;;;;;38.84;30.83;101318.04;1757343;80;25874;-55
2022/07/03 11:31:18;;;;;;;;;;;;;;;39.26;29.46;101317.94;1755997;80;25937;-56
2022/07/03 11:33:58;;;;;;;;;;;;;;;39.71;29.68;101312.88;1742271;80;26481;-57
2022/07/03 11:36:29;;;;;;;;;;;;;;;40.20;28.04;101312.42;1752452;80;25464;-56
2022/07/03 11:39:00;;;;;;;;;;;;;;;40.57;28.11;101307.13;1742226;81;27564;-56
2022/07/03 11:41:31;;;;;;;;;;;;;;;40.90;25.98;101296.83;1756809;80;26086;-56
2022/07/03 11:44:04;;;;;;;;;;;;;;;41.17;27.00;101295.68;1724798;81;25522;-56
2022/07/03 11:46:33;;;;;;;;;;;;;;;41.65;26.63;101299.44;1736467;80;25957;-56
2022/07/03 11:49:07;;;;;;;;;;;;;;;41.93;25.84;101284.92;1714504;81;25875;-56
2022/07/03 11:51:35;;;;;;;;;;;;;;;42.23;25.82;101273.05;1716097;80;27476;-56
2022/07/03 11:54:03;;;;;;;;;;;;;;;42.59;24.18;101269.46;1718857;80;25927;-56
2022/07/03 11:56:30;;;;;;;;;;;;;;;42.85;22.51;101262.80;1727870;81;25771;-56
2022/07/03 11:58:59;;;;;;;;;;;;;;;42.92;21.47;101257.40;1734502;81;26584;-56
2022/07/03 12:01:29;;;;;;;;;;;;;;;42.44;20.36;101263.82;1734284;80;25860;-56
2022/07/03 12:04:13;;;;;;;;;;;;;;;42.28;21.34;101253.66;1722405;82;28500;-56
2022/07/03 12:06:50;;;;;;;;;;;;;;;42.59;20.92;101251.08;1729420;82;25688;-56
2022/07/03 12:09:22;;;;;;;;;;;;;;;42.53;20.77;101248.22;1722579;82;25842;-56
2022/07/03 12:12:02;;;;;;;;;;;;;;;42.62;21.32;101236.26;1722092;82;25809;-56
2022/07/03 12:14:45;;;;;;;;;;;;;;;43.26;20.61;101227.13;1739986;81;25790;-56
2022/07/03 12:17:14;;;;;;;;;;;;;;;43.46;19.33;101225.99;1729932;81;27454;-56
2022/07/03 12:19:50;;;;;;;;;;;;;;;43.43;20.16;101222.47;1717424;80;25957;-56
2022/07/03 12:22:29;;;;;;;;;;;;;;;43.74;20.42;101219.69;1726289;81;25828;-56
2022/07/03 12:25:05;;;;;;;;;;;;;;;44.23;19.42;101215.45;1715845;82;26428;-56
2022/07/03 12:27:37;;;;;;;;;;;;;;;44.50;19.12;101221.56;1724162;81;25877;-56
2022/07/03 12:30:06;;;;;;;;;;;;;;;44.79;19.12;101216.73;1728234;80;28284;-56
2022/07/03 12:32:33;;;;;;;;;;;;;;;45.17;19.83;101213.14;1708349;82;25902;-56
2022/07/03 12:35:00;;;;;;;;;;;;;;;45.61;18.63;101206.62;1737094;81;25438;-57
2022/07/03 12:37:40;;;;;;;;;;;;;;;46.00;18.32;101211.05;1733550;82;25848;-56
2022/07/03 12:40:08;;;;;;;;;;;;;;;45.86;17.25;101209.27;1727300;80;25856;-56
2022/07/03 12:42:53;;;;;;;;;;;;;;;45.76;17.58;101202.96;1726377;80;27506;-56
2022/07/03 12:45:21;;;;;;;;;;;;;;;45.90;18.18;101203.06;1733136;81;25760;-57
2022/07/03 12:48:00;;;;;;;;;;;;;;;45.35;16.81;101208.56;1724711;81;26756;-56
2022/07/03 12:50:29;;;;;;;;;;;;;;;44.93;17.25;101200.72;1725298;80;25926;-56
2022/07/03 12:52:57;;;;;;;;;;;;;;;44.95;18.10;101204.63;1725503;81;25795;-56
2022/07/03 12:55:29;;;;;;;;;;;;;;;45.36;18.16;101194.00;1724391;81;27613;-57
2022/07/03 13:00:57;;;;;;;;;;;;;;;46.19;17.21;101188.94;1716030;82;25761;-57